sensor_id;sensor_type;location;lat;lon;timestamp;pressure;altitude;pressure_sealevel;temperature;humidity
11413;BME280;5762;43.256;26.960;2023-03-16T00:00:36;98694.06;;;6.70;100.00
11413;BME280;5762;43.256;26.960;2023-03-16T00:03:05;98699.16;;;6.58;100.00
11413;BME280;5762;43.256;26.960;2023-03-16T00:05:33;98696.64;;;6.48;100.00
11413;BME280;5762;43.256;26.960;2023-03-16T00:08:02;98701.43;;;6.51;100.00
11413;BME280;5762;43.256;26.960;2023-03-16T00:10:31;98709.16;;;6.55;100.00
11413;BME280;5762;43.256;26.960;2023-03-16T00:12:59;98714.23;;;6.57;100.00
11413;BME280;5762;43.256;26.960;2023-03-16T00:15:28;98708.56;;;6.58;100.00
11413;BME280;5762;43.256;26.960;2023-03-16T00:17:57;98706.73;;;6.40;100.00
11413;BME280;5762;43.256;26.960;2023-03-16T00:20:26;98704.96;;;6.49;100.00
11413;BME280;5762;43.256;26.960;2023-03-16T00:22:55;98702.02;;;6.48;100.00
11413;BME280;5762;43.256;26.960;2023-03-16T00:25:24;98694.59;;;6.26;100.00
11413;BME280;5762;43.256;26.960;2023-03-16T00:27:52;98695.10;;;6.28;100.00
11413;BME280;5762;43.256;26.960;2023-03-16T00:30:20;98704.88;;;6.38;100.00
11413;BME280;5762;43.256;26.960;2023-03-16T00:32:49;98705.59;;;6.44;100.00
11413;BME280;5762;43.256;26.960;2023-03-16T00:35:18;98709.83;;;6.47;100.00
11413;BME280;5762;43.256;26.960;2023-03-16T00:37:47;98710.34;;;6.49;100.00
11413;BME280;5762;43.256;26.960;2023-03-16T00:40:15;98712.86;;;6.43;100.00
11413;BME280;5762;43.256;26.960;2023-03-16T00:42:44;98713.86;;;6.47;100.00
11413;BME280;5762;43.256;26.960;2023-03-16T00:45:13;98709.03;;;6.47;100.00
11413;BME280;5762;43.256;26.960;2023-03-16T00:47:42;98706.98;;;6.41;100.00
11413;BME280;5762;43.256;26.960;2023-03-16T00:50:10;98706.94;;;6.44;100.00
11413;BME280;5762;43.256;26.960;2023-03-16T00:52:39;98705.30;;;6.45;100.00
11413;BME280;5762;43.256;26.960;2023-03-16T00:55:08;98703.29;;;6.37;100.00
11413;BME280;5762;43.256;26.960;2023-03-16T00:57:37;98710.55;;;6.36;100.00
11413;BME280;5762;43.256;26.960;2023-03-16T01:00:06;98711.31;;;6.39;100.00
11413;BME280;5762;43.256;26.960;2023-03-16T01:02:41;98704.88;;;6.38;100.00
11413;BME280;5762;43.256;26.960;2023-03-16T01:05:10;98698.50;;;6.34;100.00
11413;BME280;5762;43.256;26.960;2023-03-16T01:07:39;98700.77;;;6.43;100.00
11413;BME280;5762;43.256;26.960;2023-03-16T01:10:07;98700.27;;;6.41;100.00
11413;BME280;5762;43.256;26.960;2023-03-16T01:12:36;98694.09;;;6.24;100.00
11413;BME280;5762;43.256;26.960;2023-03-16T01:15:04;98699.03;;;6.20;100.00
11413;BME280;5762;43.256;26.960;2023-03-16T01:17:32;98706.00;;;6.21;100.00
11413;BME280;5762;43.256;26.960;2023-03-16T01:20:01;98700.34;;;6.22;100.00
11413;BME280;5762;43.256;26.960;2023-03-16T01:22:30;98704.91;;;6.22;100.00
11413;BME280;5762;43.256;26.960;2023-03-16T01:24:59;98702.05;;;6.16;100.00
11413;BME280;5762;43.256;26.960;2023-03-16T01:27:28;98712.36;;;6.25;100.00
11413;BME280;5762;43.256;26.960;2023-03-16T01:29:56;98716.01;;;6.31;100.00
11413;BME280;5762;43.256;26.960;2023-03-16T01:32:26;98715.47;;;6.32;100.00
11413;BME280;5762;43.256;26.960;2023-03-16T01:34:54;98716.27;;;6.32;100.00
11413;BME280;5762;43.256;26.960;2023-03-16T01:37:22;98712.82;;;6.29;100.00
11413;BME280;5762;43.256;26.960;2023-03-16T01:39:51;98709.66;;;6.11;100.00
11413;BME280;5762;43.256;26.960;2023-03-16T01:42:20;98715.36;;;6.07;100.00
11413;BME280;5762;43.256;26.960;2023-03-16T01:44:55;98722.14;;;6.02;100.00
11413;BME280;5762;43.256;26.960;2023-03-16T01:47:23;98728.20;;;6.10;100.00
11413;BME280;5762;43.256;26.960;2023-03-16T01:49:53;98735.05;;;6.19;100.00
11413;BME280;5762;43.256;26.960;2023-03-16T01:52:26;98730.91;;;6.24;100.00
11413;BME280;5762;43.256;26.960;2023-03-16T01:54:56;98741.53;;;6.31;100.00
11413;BME280;5762;43.256;26.960;2023-03-16T01:57:28;98744.69;;;6.36;100.00
11413;BME280;5762;43.256;26.960;2023-03-16T01:59:58;98741.45;;;6.36;100.00
11413;BME280;5762;43.256;26.960;2023-03-16T02:02:28;98740.95;;;6.34;100.00
11413;BME280;5762;43.256;26.960;2023-03-16T02:05:03;98745.27;;;6.33;100.00
11413;BME280;5762;43.256;26.960;2023-03-16T02:07:33;98737.21;;;6.33;100.00
11413;BME280;5762;43.256;26.960;2023-03-16T02:10:01;98742.00;;;6.36;100.00
11413;BME280;5762;43.256;26.960;2023-03-16T02:12:31;98743.11;;;6.19;100.00
11413;BME280;5762;43.256;26.960;2023-03-16T02:14:59;98744.77;;;6.31;100.00
11413;BME280;5762;43.256;26.960;2023-03-16T02:17:28;98743.89;;;6.35;100.00
11413;BME280;5762;43.256;26.960;2023-03-16T02:22:46;98744.52;;;6.46;100.00
11413;BME280;5762;43.256;26.960;2023-03-16T02:25:15;98749.61;;;6.61;100.00
11413;BME280;5762;43.256;26.960;2023-03-16T02:30:20;98750.99;;;6.59;100.00
11413;BME280;5762;43.256;26.960;2023-03-16T02:32:49;98744.48;;;6.62;100.00
11413;BME280;5762;43.256;26.960;2023-03-16T02:35:17;98746.16;;;6.45;100.00
11413;BME280;5762;43.256;26.960;2023-03-16T02:37:46;98747.45;;;6.47;100.00
11413;BME280;5762;43.256;26.960;2023-03-16T02:40:22;98748.89;;;6.42;100.00
11413;BME280;5762;43.256;26.960;2023-03-16T02:43:01;98737.84;;;6.44;100.00
11413;BME280;5762;43.256;26.960;2023-03-16T02:45:34;98747.67;;;6.51;100.00
11413;BME280;5762;43.256;26.960;2023-03-16T02:48:01;98741.58;;;6.45;100.00
11413;BME280;5762;43.256;26.960;2023-03-16T02:50:31;98747.75;;;6.46;100.00
11413;BME280;5762;43.256;26.960;2023-03-16T02:52:58;98752.34;;;6.13;100.00
11413;BME280;5762;43.256;26.960;2023-03-16T02:55:27;98742.33;;;5.99;100.00
11413;BME280;5762;43.256;26.960;2023-03-16T02:57:56;98749.88;;;5.97;100.00
11413;BME280;5762;43.256;26.960;2023-03-16T03:00:25;98754.88;;;5.85;100.00
11413;BME280;5762;43.256;26.960;2023-03-16T03:02:54;98763.77;;;5.83;100.00
11413;BME280;5762;43.256;26.960;2023-03-16T03:05:23;98760.14;;;5.93;100.00
11413;BME280;5762;43.256;26.960;2023-03-16T03:07:51;98766.28;;;5.96;100.00
11413;BME280;5762;43.256;26.960;2023-03-16T03:10:19;98766.39;;;5.88;100.00
11413;BME280;5762;43.256;26.960;2023-03-16T03:12:48;98763.84;;;5.78;100.00
11413;BME280;5762;43.256;26.960;2023-03-16T03:15:17;98765.57;;;5.69;100.00
11413;BME280;5762;43.256;26.960;2023-03-16T03:17:46;98769.63;;;5.66;100.00
11413;BME280;5762;43.256;26.960;2023-03-16T03:20:14;98765.50;;;5.74;100.00
11413;BME280;5762;43.256;26.960;2023-03-16T03:22:43;98763.77;;;5.83;100.00
11413;BME280;5762;43.256;26.960;2023-03-16T03:25:13;98768.45;;;5.94;100.00
11413;BME280;5762;43.256;26.960;2023-03-16T03:27:41;98768.64;;;6.00;100.00
11413;BME280;5762;43.256;26.960;2023-03-16T03:30:12;98772.88;;;6.03;100.00
11413;BME280;5762;43.256;26.960;2023-03-16T03:32:40;98770.73;;;6.03;100.00
11413;BME280;5762;43.256;26.960;2023-03-16T03:35:09;98768.27;;;6.07;100.00
11413;BME280;5762;43.256;26.960;2023-03-16T03:37:39;98764.92;;;6.15;100.00
11413;BME280;5762;43.256;26.960;2023-03-16T03:40:08;98771.06;;;6.18;100.00
11413;BME280;5762;43.256;26.960;2023-03-16T03:42:38;98771.39;;;6.14;100.00
11413;BME280;5762;43.256;26.960;2023-03-16T03:45:06;98771.35;;;6.16;100.00
11413;BME280;5762;43.256;26.960;2023-03-16T03:47:35;98771.94;;;6.13;100.00
11413;BME280;5762;43.256;26.960;2023-03-16T03:50:04;98778.87;;;6.17;100.00
11413;BME280;5762;43.256;26.960;2023-03-16T03:52:33;98779.52;;;6.09;100.00
11413;BME280;5762;43.256;26.960;2023-03-16T03:55:01;98785.51;;;6.22;100.00
11413;BME280;5762;43.256;26.960;2023-03-16T03:57:29;98788.59;;;6.29;100.00
11413;BME280;5762;43.256;26.960;2023-03-16T03:59:57;98799.52;;;6.19;100.00
11413;BME280;5762;43.256;26.960;2023-03-16T04:02:26;98804.20;;;6.11;100.00
11413;BME280;5762;43.256;26.960;2023-03-16T04:04:58;98813.61;;;6.11;100.00
11413;BME280;5762;43.256;26.960;2023-03-16T04:07:27;98817.38;;;6.10;100.00
11413;BME280;5762;43.256;26.960;2023-03-16T04:09:55;98814.00;;;6.01;100.00
11413;BME280;5762;43.256;26.960;2023-03-16T04:12:24;98817.88;;;5.93;100.00
11413;BME280;5762;43.256;26.960;2023-03-16T04:14:53;98817.59;;;5.94;100.00
11413;BME280;5762;43.256;26.960;2023-03-16T04:17:22;98820.20;;;5.99;100.00
11413;BME280;5762;43.256;26.960;2023-03-16T04:19:50;98825.42;;;5.91;100.00
11413;BME280;5762;43.256;26.960;2023-03-16T04:22:19;98824.92;;;6.08;100.00
11413;BME280;5762;43.256;26.960;2023-03-16T04:24:48;98830.38;;;6.02;100.00
11413;BME280;5762;43.256;26.960;2023-03-16T04:27:17;98836.83;;;6.01;100.00
11413;BME280;5762;43.256;26.960;2023-03-16T04:29:47;98839.02;;;6.18;100.00
11413;BME280;5762;43.256;26.960;2023-03-16T04:32:15;98845.78;;;6.32;100.00
11413;BME280;5762;43.256;26.960;2023-03-16T04:34:44;98847.09;;;6.34;100.00
11413;BME280;5762;43.256;26.960;2023-03-16T04:37:13;98850.31;;;6.34;100.00
11413;BME280;5762;43.256;26.960;2023-03-16T04:39:42;98852.75;;;6.33;100.00
11413;BME280;5762;43.256;26.960;2023-03-16T04:42:11;98854.78;;;6.41;100.00
11413;BME280;5762;43.256;26.960;2023-03-16T04:44:39;98857.97;;;6.59;100.00
11413;BME280;5762;43.256;26.960;2023-03-16T04:47:09;98855.55;;;6.77;100.00
11413;BME280;5762;43.256;26.960;2023-03-16T04:49:38;98832.92;;;6.94;100.00
11413;BME280;5762;43.256;26.960;2023-03-16T04:52:06;98832.41;;;7.08;100.00
11413;BME280;5762;43.256;26.960;2023-03-16T04:54:35;98830.88;;;7.18;100.00
11413;BME280;5762;43.256;26.960;2023-03-16T04:57:03;98824.65;;;7.20;100.00
11413;BME280;5762;43.256;26.960;2023-03-16T04:59:32;98821.74;;;7.30;100.00
11413;BME280;5762;43.256;26.960;2023-03-16T05:02:01;98821.09;;;7.36;100.00
11413;BME280;5762;43.256;26.960;2023-03-16T05:04:30;98823.74;;;7.38;100.00
11413;BME280;5762;43.256;26.960;2023-03-16T05:06:59;98832.56;;;7.42;100.00
11413;BME280;5762;43.256;26.960;2023-03-16T05:09:27;98832.47;;;7.47;100.00
11413;BME280;5762;43.256;26.960;2023-03-16T05:11:57;98828.38;;;7.49;100.00
11413;BME280;5762;43.256;26.960;2023-03-16T05:14:25;98827.98;;;7.56;100.00
11413;BME280;5762;43.256;26.960;2023-03-16T05:16:54;98835.81;;;7.55;100.00
11413;BME280;5762;43.256;26.960;2023-03-16T05:19:23;98836.66;;;7.53;100.00
11413;BME280;5762;43.256;26.960;2023-03-16T05:21:52;98836.06;;;7.56;100.00
11413;BME280;5762;43.256;26.960;2023-03-16T05:24:20;98838.70;;;7.58;100.00
11413;BME280;5762;43.256;26.960;2023-03-16T05:26:49;98840.34;;;7.57;100.00
11413;BME280;5762;43.256;26.960;2023-03-16T05:29:18;98845.73;;;7.57;100.00
11413;BME280;5762;43.256;26.960;2023-03-16T05:31:46;98853.27;;;7.57;100.00
11413;BME280;5762;43.256;26.960;2023-03-16T05:34:15;98852.22;;;7.56;100.00
11413;BME280;5762;43.256;26.960;2023-03-16T05:36:43;98860.55;;;7.57;100.00
11413;BME280;5762;43.256;26.960;2023-03-16T05:39:11;98864.33;;;7.56;100.00
11413;BME280;5762;43.256;26.960;2023-03-16T05:41:40;98870.27;;;7.55;100.00
11413;BME280;5762;43.256;26.960;2023-03-16T05:44:10;98878.67;;;7.65;100.00
11413;BME280;5762;43.256;26.960;2023-03-16T05:46:38;98886.09;;;7.70;100.00
11413;BME280;5762;43.256;26.960;2023-03-16T05:49:11;98884.70;;;7.73;100.00
11413;BME280;5762;43.256;26.960;2023-03-16T05:51:36;98893.33;;;7.72;100.00
11413;BME280;5762;43.256;26.960;2023-03-16T05:54:05;98898.92;;;7.76;100.00
11413;BME280;5762;43.256;26.960;2023-03-16T05:56:34;98892.73;;;7.76;100.00
11413;BME280;5762;43.256;26.960;2023-03-16T05:59:02;98894.13;;;7.73;100.00
11413;BME280;5762;43.256;26.960;2023-03-16T06:01:30;98900.02;;;7.75;100.00
11413;BME280;5762;43.256;26.960;2023-03-16T06:03:59;98893.19;;;7.80;100.00
11413;BME280;5762;43.256;26.960;2023-03-16T06:06:28;98904.26;;;7.92;100.00
11413;BME280;5762;43.256;26.960;2023-03-16T06:08:57;98914.23;;;7.92;100.00
11413;BME280;5762;43.256;26.960;2023-03-16T06:11:25;98908.34;;;7.90;100.00
11413;BME280;5762;43.256;26.960;2023-03-16T06:13:54;98909.34;;;7.80;100.00
11413;BME280;5762;43.256;26.960;2023-03-16T06:16:23;98917.17;;;7.79;100.00
11413;BME280;5762;43.256;26.960;2023-03-16T06:18:51;98917.22;;;7.77;100.00
11413;BME280;5762;43.256;26.960;2023-03-16T06:21:21;98918.52;;;7.79;100.00
11413;BME280;5762;43.256;26.960;2023-03-16T06:23:49;98928.25;;;7.78;100.00
11413;BME280;5762;43.256;26.960;2023-03-16T06:26:18;98931.19;;;7.79;100.00
11413;BME280;5762;43.256;26.960;2023-03-16T06:28:47;98935.48;;;7.80;100.00
11413;BME280;5762;43.256;26.960;2023-03-16T06:31:15;98941.37;;;7.82;100.00
11413;BME280;5762;43.256;26.960;2023-03-16T06:33:44;98947.65;;;7.77;100.00
11413;BME280;5762;43.256;26.960;2023-03-16T06:36:13;98957.21;;;7.69;100.00
11413;BME280;5762;43.256;26.960;2023-03-16T06:38:41;98947.59;;;7.66;100.00
11413;BME280;5762;43.256;26.960;2023-03-16T06:41:10;98956.63;;;7.72;100.00
11413;BME280;5762;43.256;26.960;2023-03-16T06:43:39;98960.95;;;7.71;100.00
11413;BME280;5762;43.256;26.960;2023-03-16T06:46:09;98963.77;;;7.80;100.00
11413;BME280;5762;43.256;26.960;2023-03-16T06:48:37;98963.92;;;7.86;100.00
11413;BME280;5762;43.256;26.960;2023-03-16T06:51:07;98968.11;;;7.92;100.00
11413;BME280;5762;43.256;26.960;2023-03-16T06:53:35;98978.23;;;7.84;100.00
11413;BME280;5762;43.256;26.960;2023-03-16T06:56:04;98978.13;;;7.75;100.00
11413;BME280;5762;43.256;26.960;2023-03-16T06:58:33;98978.67;;;7.74;100.00
11413;BME280;5762;43.256;26.960;2023-03-16T07:01:02;98982.25;;;7.70;100.00
11413;BME280;5762;43.256;26.960;2023-03-16T07:03:30;98985.74;;;7.70;100.00
11413;BME280;5762;43.256;26.960;2023-03-16T07:05:58;98991.52;;;7.64;100.00
11413;BME280;5762;43.256;26.960;2023-03-16T07:08:26;99000.47;;;7.62;100.00
11413;BME280;5762;43.256;26.960;2023-03-16T07:10:55;99003.08;;;7.64;100.00
11413;BME280;5762;43.256;26.960;2023-03-16T07:13:24;99000.60;;;7.68;100.00
11413;BME280;5762;43.256;26.960;2023-03-16T07:15:52;99000.13;;;7.80;100.00
11413;BME280;5762;43.256;26.960;2023-03-16T07:18:20;99003.53;;;7.85;100.00
11413;BME280;5762;43.256;26.960;2023-03-16T07:20:48;99003.09;;;7.94;100.00
11413;BME280;5762;43.256;26.960;2023-03-16T07:23:17;99008.87;;;7.88;100.00
11413;BME280;5762;43.256;26.960;2023-03-16T07:25:45;99006.72;;;7.87;100.00
11413;BME280;5762;43.256;26.960;2023-03-16T07:28:13;99008.07;;;7.87;100.00
11413;BME280;5762;43.256;26.960;2023-03-16T07:30:45;99005.95;;;7.98;100.00
11413;BME280;5762;43.256;26.960;2023-03-16T07:33:14;99008.36;;;7.99;100.00
11413;BME280;5762;43.256;26.960;2023-03-16T07:35:42;99014.47;;;7.91;100.00
11413;BME280;5762;43.256;26.960;2023-03-16T07:38:10;99027.95;;;7.75;100.00
11413;BME280;5762;43.256;26.960;2023-03-16T07:40:39;99030.84;;;7.79;100.00
11413;BME280;5762;43.256;26.960;2023-03-16T07:43:07;99034.21;;;7.87;100.00
11413;BME280;5762;43.256;26.960;2023-03-16T07:45:36;99034.00;;;7.83;100.00
11413;BME280;5762;43.256;26.960;2023-03-16T07:48:06;99041.37;;;7.78;100.00
11413;BME280;5762;43.256;26.960;2023-03-16T07:50:34;99035.91;;;7.66;100.00
11413;BME280;5762;43.256;26.960;2023-03-16T07:53:04;99042.05;;;7.69;100.00
11413;BME280;5762;43.256;26.960;2023-03-16T07:55:32;99042.67;;;7.64;100.00
11413;BME280;5762;43.256;26.960;2023-03-16T07:58:01;99042.03;;;7.56;100.00
11413;BME280;5762;43.256;26.960;2023-03-16T08:00:30;99041.10;;;7.47;100.00
11413;BME280;5762;43.256;26.960;2023-03-16T08:02:59;99057.99;;;7.33;100.00
11413;BME280;5762;43.256;26.960;2023-03-16T08:05:28;99055.30;;;7.17;100.00
11413;BME280;5762;43.256;26.960;2023-03-16T08:07:56;99069.63;;;7.13;100.00
11413;BME280;5762;43.256;26.960;2023-03-16T08:10:24;99069.26;;;7.00;100.00
11413;BME280;5762;43.256;26.960;2023-03-16T08:12:53;99073.07;;;6.97;100.00
11413;BME280;5762;43.256;26.960;2023-03-16T08:15:21;99071.22;;;6.95;100.00
11413;BME280;5762;43.256;26.960;2023-03-16T08:17:50;99078.03;;;6.90;100.00
11413;BME280;5762;43.256;26.960;2023-03-16T08:20:19;99078.74;;;6.77;100.00
11413;BME280;5762;43.256;26.960;2023-03-16T08:22:47;99075.66;;;6.64;100.00
11413;BME280;5762;43.256;26.960;2023-03-16T08:25:16;99081.70;;;6.56;100.00
11413;BME280;5762;43.256;26.960;2023-03-16T08:27:46;99090.31;;;6.56;100.00
11413;BME280;5762;43.256;26.960;2023-03-16T08:30:14;99092.77;;;6.52;100.00
11413;BME280;5762;43.256;26.960;2023-03-16T08:32:44;99087.70;;;6.48;100.00
11413;BME280;5762;43.256;26.960;2023-03-16T08:35:14;99085.47;;;6.31;100.00
11413;BME280;5762;43.256;26.960;2023-03-16T08:37:42;99086.87;;;6.26;100.00
11413;BME280;5762;43.256;26.960;2023-03-16T08:40:11;99092.61;;;6.20;100.00
11413;BME280;5762;43.256;26.960;2023-03-16T08:42:41;99106.58;;;6.19;100.00
11413;BME280;5762;43.256;26.960;2023-03-16T08:45:10;99105.76;;;6.21;100.00
11413;BME280;5762;43.256;26.960;2023-03-16T08:47:39;99111.08;;;6.24;100.00
11413;BME280;5762;43.256;26.960;2023-03-16T08:50:08;99125.28;;;6.27;100.00
11413;BME280;5762;43.256;26.960;2023-03-16T08:52:37;99116.69;;;6.27;100.00
11413;BME280;5762;43.256;26.960;2023-03-16T08:55:06;99128.23;;;6.28;100.00
11413;BME280;5762;43.256;26.960;2023-03-16T08:57:35;99128.77;;;6.27;100.00
11413;BME280;5762;43.256;26.960;2023-03-16T09:00:03;99134.25;;;6.20;100.00
11413;BME280;5762;43.256;26.960;2023-03-16T09:02:33;99119.47;;;6.20;100.00
11413;BME280;5762;43.256;26.960;2023-03-16T09:05:02;99131.61;;;6.15;100.00
11413;BME280;5762;43.256;26.960;2023-03-16T09:07:30;99133.80;;;6.10;100.00
11413;BME280;5762;43.256;26.960;2023-03-16T09:10:00;99137.29;;;6.11;100.00
11413;BME280;5762;43.256;26.960;2023-03-16T09:12:29;99142.88;;;6.17;100.00
11413;BME280;5762;43.256;26.960;2023-03-16T09:14:58;99146.52;;;5.99;100.00
11413;BME280;5762;43.256;26.960;2023-03-16T09:17:27;99144.33;;;6.04;100.00
11413;BME280;5762;43.256;26.960;2023-03-16T09:19:55;99154.81;;;6.03;100.00
11413;BME280;5762;43.256;26.960;2023-03-16T09:22:24;99146.47;;;6.04;100.00
11413;BME280;5762;43.256;26.960;2023-03-16T09:24:53;99152.34;;;6.09;100.00
11413;BME280;5762;43.256;26.960;2023-03-16T09:27:22;99148.90;;;6.03;100.00
11413;BME280;5762;43.256;26.960;2023-03-16T09:29:51;99146.19;;;6.06;100.00
11413;BME280;5762;43.256;26.960;2023-03-16T09:32:20;99164.97;;;6.09;100.00
11413;BME280;5762;43.256;26.960;2023-03-16T09:34:49;99154.47;;;6.12;100.00
11413;BME280;5762;43.256;26.960;2023-03-16T09:37:17;99150.78;;;6.03;100.00
11413;BME280;5762;43.256;26.960;2023-03-16T09:39:47;99155.83;;;6.10;100.00
11413;BME280;5762;43.256;26.960;2023-03-16T09:42:35;99168.70;;;6.13;100.00
11413;BME280;5762;43.256;26.960;2023-03-16T09:47:33;99177.28;;;6.15;100.00
11413;BME280;5762;43.256;26.960;2023-03-16T09:50:03;99171.39;;;6.13;100.00
11413;BME280;5762;43.256;26.960;2023-03-16T09:57:53;99176.84;;;6.02;100.00
11413;BME280;5762;43.256;26.960;2023-03-16T10:00:26;99169.08;;;5.98;100.00
11413;BME280;5762;43.256;26.960;2023-03-16T10:05:23;99179.38;;;5.86;100.00
11413;BME280;5762;43.256;26.960;2023-03-16T10:10:41;99186.39;;;5.82;100.00
11413;BME280;5762;43.256;26.960;2023-03-16T10:13:04;99178.61;;;5.81;100.00
11413;BME280;5762;43.256;26.960;2023-03-16T10:15:34;99189.92;;;5.75;100.00
11413;BME280;5762;43.256;26.960;2023-03-16T10:18:12;99186.72;;;5.73;100.00
11413;BME280;5762;43.256;26.960;2023-03-16T10:20:39;99187.30;;;5.65;100.00
11413;BME280;5762;43.256;26.960;2023-03-16T10:23:16;99190.80;;;5.65;100.00
11413;BME280;5762;43.256;26.960;2023-03-16T10:25:47;99188.62;;;5.70;100.00
11413;BME280;5762;43.256;26.960;2023-03-16T10:28:19;99185.98;;;5.62;100.00
11413;BME280;5762;43.256;26.960;2023-03-16T10:30:49;99190.73;;;5.76;100.00
11413;BME280;5762;43.256;26.960;2023-03-16T10:33:19;99197.44;;;5.76;100.00
11413;BME280;5762;43.256;26.960;2023-03-16T10:35:48;99188.08;;;5.70;100.00
11413;BME280;5762;43.256;26.960;2023-03-16T10:40:58;99195.91;;;5.62;100.00
11413;BME280;5762;43.256;26.960;2023-03-16T10:43:27;99191.33;;;5.65;100.00
11413;BME280;5762;43.256;26.960;2023-03-16T10:46:00;99201.80;;;5.66;100.00
11413;BME280;5762;43.256;26.960;2023-03-16T10:48:30;99206.38;;;5.63;100.00
11413;BME280;5762;43.256;26.960;2023-03-16T10:50:58;99200.70;;;5.70;100.00
11413;BME280;5762;43.256;26.960;2023-03-16T10:53:28;99200.50;;;5.59;100.00
11413;BME280;5762;43.256;26.960;2023-03-16T10:55:58;99202.38;;;5.58;100.00
11413;BME280;5762;43.256;26.960;2023-03-16T10:58:29;99197.02;;;5.56;100.00
11413;BME280;5762;43.256;26.960;2023-03-16T11:00:55;99203.45;;;5.60;100.00
11413;BME280;5762;43.256;26.960;2023-03-16T11:03:25;99209.03;;;5.68;100.00
11413;BME280;5762;43.256;26.960;2023-03-16T11:06:00;99200.99;;;5.66;100.00
11413;BME280;5762;43.256;26.960;2023-03-16T11:08:37;99203.13;;;5.69;100.00
11413;BME280;5762;43.256;26.960;2023-03-16T11:11:07;99201.58;;;5.58;100.00
11413;BME280;5762;43.256;26.960;2023-03-16T11:13:36;99191.66;;;5.56;100.00
11413;BME280;5762;43.256;26.960;2023-03-16T11:18:39;99206.63;;;5.67;100.00
11413;BME280;5762;43.256;26.960;2023-03-16T11:21:21;99196.69;;;5.67;100.00
11413;BME280;5762;43.256;26.960;2023-03-16T11:23:49;99211.66;;;5.79;100.00
11413;BME280;5762;43.256;26.960;2023-03-16T11:31:36;99201.48;;;5.73;100.00
11413;BME280;5762;43.256;26.960;2023-03-16T11:36:41;99200.95;;;5.73;100.00
11413;BME280;5762;43.256;26.960;2023-03-16T11:46:58;99213.58;;;5.70;100.00
11413;BME280;5762;43.256;26.960;2023-03-16T12:00:10;99234.92;;;5.52;100.00
11413;BME280;5762;43.256;26.960;2023-03-16T12:10:33;99249.09;;;5.57;100.00
11413;BME280;5762;43.256;26.960;2023-03-16T12:13:15;99245.59;;;5.59;100.00
11413;BME280;5762;43.256;26.960;2023-03-16T12:15:50;99248.26;;;5.62;100.00
11413;BME280;5762;43.256;26.960;2023-03-16T12:18:20;99257.66;;;5.62;100.00
11413;BME280;5762;43.256;26.960;2023-03-16T12:25:50;99263.00;;;5.67;100.00
11413;BME280;5762;43.256;26.960;2023-03-16T12:28:21;99260.86;;;5.64;100.00
11413;BME280;5762;43.256;26.960;2023-03-16T12:30:57;99262.50;;;5.57;100.00
11413;BME280;5762;43.256;26.960;2023-03-16T12:36:29;99278.40;;;5.51;100.00
11413;BME280;5762;43.256;26.960;2023-03-16T12:38:53;99280.77;;;5.55;100.00
11413;BME280;5762;43.256;26.960;2023-03-16T12:46:46;99290.74;;;5.52;100.00
11413;BME280;5762;43.256;26.960;2023-03-16T12:49:12;99306.27;;;5.55;100.00
11413;BME280;5762;43.256;26.960;2023-03-16T12:51:41;99303.65;;;5.45;100.00
11413;BME280;5762;43.256;26.960;2023-03-16T12:54:22;99302.85;;;5.42;100.00
11413;BME280;5762;43.256;26.960;2023-03-16T12:57:09;99307.97;;;5.36;100.00
11413;BME280;5762;43.256;26.960;2023-03-16T12:59:23;99297.77;;;5.41;100.00
11413;BME280;5762;43.256;26.960;2023-03-16T13:01:56;99313.05;;;5.40;100.00
11413;BME280;5762;43.256;26.960;2023-03-16T13:04:32;99322.42;;;5.48;100.00
11413;BME280;5762;43.256;26.960;2023-03-16T13:06:59;99331.80;;;5.53;100.00
11413;BME280;5762;43.256;26.960;2023-03-16T13:09:24;99333.91;;;5.56;100.00
11413;BME280;5762;43.256;26.960;2023-03-16T13:11:53;99338.52;;;5.50;100.00
11413;BME280;5762;43.256;26.960;2023-03-16T13:14:36;99346.33;;;5.42;100.00
11413;BME280;5762;43.256;26.960;2023-03-16T13:22:43;99341.52;;;5.31;100.00
11413;BME280;5762;43.256;26.960;2023-03-16T13:27:43;99346.07;;;5.38;100.00
11413;BME280;5762;43.256;26.960;2023-03-16T13:30:18;99360.28;;;5.41;100.00
11413;BME280;5762;43.256;26.960;2023-03-16T13:32:46;99357.32;;;5.45;100.00
11413;BME280;5762;43.256;26.960;2023-03-16T13:35:16;99363.22;;;5.47;100.00
11413;BME280;5762;43.256;26.960;2023-03-16T13:37:45;99360.53;;;5.47;100.00
11413;BME280;5762;43.256;26.960;2023-03-16T13:40:22;99375.56;;;5.46;100.00
11413;BME280;5762;43.256;26.960;2023-03-16T13:42:50;99381.48;;;5.40;100.00
11413;BME280;5762;43.256;26.960;2023-03-16T13:45:20;99375.57;;;5.43;100.00
11413;BME280;5762;43.256;26.960;2023-03-16T13:47:48;99380.15;;;5.37;100.00
11413;BME280;5762;43.256;26.960;2023-03-16T13:50:17;99388.20;;;5.37;100.00
11413;BME280;5762;43.256;26.960;2023-03-16T13:52:57;99395.18;;;5.33;100.00
11413;BME280;5762;43.256;26.960;2023-03-16T13:55:29;99391.42;;;5.32;100.00
11413;BME280;5762;43.256;26.960;2023-03-16T13:57:56;99396.79;;;5.34;100.00
11413;BME280;5762;43.256;26.960;2023-03-16T14:00:25;99404.30;;;5.37;100.00
11413;BME280;5762;43.256;26.960;2023-03-16T14:02:55;99409.39;;;5.39;100.00
11413;BME280;5762;43.256;26.960;2023-03-16T14:05:31;99412.61;;;5.44;100.00
11413;BME280;5762;43.256;26.960;2023-03-16T14:07:59;99413.41;;;5.42;100.00
11413;BME280;5762;43.256;26.960;2023-03-16T14:10:29;99414.23;;;5.34;100.00
11413;BME280;5762;43.256;26.960;2023-03-16T14:13:06;99421.47;;;5.36;100.00
11413;BME280;5762;43.256;26.960;2023-03-16T14:15:28;99424.16;;;5.26;100.00
11413;BME280;5762;43.256;26.960;2023-03-16T14:18:17;99430.34;;;5.24;100.00
11413;BME280;5762;43.256;26.960;2023-03-16T14:20:41;99426.31;;;5.22;100.00
11413;BME280;5762;43.256;26.960;2023-03-16T14:23:19;99437.08;;;5.17;100.00
11413;BME280;5762;43.256;26.960;2023-03-16T14:25:43;99435.20;;;5.20;100.00
11413;BME280;5762;43.256;26.960;2023-03-16T14:28:12;99439.23;;;5.12;100.00
11413;BME280;5762;43.256;26.960;2023-03-16T14:30:51;99442.98;;;5.09;100.00